Time;durP1;ratioP1;P1;durP2;ratioP2;P2;SDS_P1;SDS_P2;PMS_P1;PMS_P2;Temp;Humidity;BMP_temperature;BMP_pressure;BME280_temperature;BME280_humidity;BME280_pressure;Samples;Min_cycle;Max_cycle;Signal;HPM_P1;HPM_P2
2023/05/05 00:01:10;;;;;;;;;;;18.30;57.10;;;;;;8402629;28;19928;-73
2023/05/05 00:05:12;;;;;;;;;;;18.20;57.60;;;;;;8384483;28;19959;-73
2023/05/05 00:09:14;;;;;;;;;;;18.10;57.10;;;;;;8388091;28;19932;-73
2023/05/05 00:13:16;;;;;;;;;;;18.10;57.40;;;;;;8394675;28;19992;-73
2023/05/05 00:17:18;;;;;;;;;;;18.10;57.40;;;;;;8398681;28;20405;-72
2023/05/05 00:21:19;;;;;;;;;;;18.10;58.10;;;;;;8395782;28;20438;-73
2023/05/05 00:25:21;;;;;;;;;;;18.10;58.20;;;;;;8398129;28;19924;-73
2023/05/05 00:29:22;;;;;;;;;;;18.10;58.70;;;;;;8407011;28;20028;-73
2023/05/05 00:33:24;;;;;;;;;;;18.10;59.40;;;;;;8388832;28;19938;-73
2023/05/05 00:37:26;;;;;;;;;;;18.00;59.80;;;;;;8400660;28;20346;-74
2023/05/05 00:41:28;;;;;;;;;;;17.90;62.50;;;;;;8400433;28;20384;-73
2023/05/05 00:45:29;;;;;;;;;;;17.70;74.60;;;;;;8398329;28;19966;-73
2023/05/05 00:49:32;;;;;;;;;;;17.50;72.30;;;;;;8391815;28;20290;-73
2023/05/05 00:53:34;;;;;;;;;;;17.40;73.90;;;;;;8381008;28;19970;-73
2023/05/05 00:57:35;;;;;;;;;;;17.30;70.80;;;;;;8397470;28;19924;-73
2023/05/05 01:01:37;;;;;;;;;;;17.20;75.50;;;;;;8401695;28;19951;-73
2023/05/05 01:06:04;;;;;;;;;;;17.30;69.60;;;;;;8399480;28;19932;-73
2023/05/05 01:10:13;;;;;;;;;;;17.30;67.20;;;;;;8394573;28;19924;-73
2023/05/05 01:14:36;;;;;;;;;;;17.40;67.60;;;;;;8396017;28;20422;-73
2023/05/05 01:18:44;;;;;;;;;;;17.40;71.40;;;;;;8390619;28;20371;-73
2023/05/05 01:22:48;;;;;;;;;;;17.40;70.70;;;;;;8398905;28;19987;-74
2023/05/05 01:27:15;;;;;;;;;;;17.40;81.10;;;;;;8399259;28;19931;-73
2023/05/05 01:31:16;;;;;;;;;;;17.40;82.20;;;;;;8395437;28;19935;-73
2023/05/05 01:35:19;;;;;;;;;;;17.40;78.80;;;;;;8395604;28;20391;-73
2023/05/05 01:39:23;;;;;;;;;;;17.40;68.60;;;;;;8374056;28;19931;-73
2023/05/05 01:43:26;;;;;;;;;;;17.50;82.00;;;;;;8404316;28;19930;-73
2023/05/05 01:47:28;;;;;;;;;;;17.30;91.90;;;;;;8396835;28;19928;-74
2023/05/05 01:51:30;;;;;;;;;;;17.10;90.20;;;;;;8394849;28;19963;-73
2023/05/05 01:55:33;;;;;;;;;;;17.00;88.90;;;;;;8401758;28;19930;-73
2023/05/05 01:59:35;;;;;;;;;;;17.00;80.90;;;;;;8369395;28;21603;-74
2023/05/05 02:03:38;;;;;;;;;;;17.10;75.00;;;;;;8381714;28;19959;-75
2023/05/05 02:07:40;;;;;;;;;;;17.20;74.30;;;;;;8361669;28;20041;-74
2023/05/05 02:11:41;;;;;;;;;;;17.20;90.90;;;;;;8373116;28;19939;-74
2023/05/05 02:26:10;;;;;;;;;;;16.80;89.70;;;;;;8392909;28;19965;-73
2023/05/05 02:30:13;;;;;;;;;;;16.80;92.20;;;;;;8401306;28;20061;-74
2023/05/05 02:34:19;;;;;;;;;;;16.70;88.00;;;;;;8398673;28;19936;-73
2023/05/05 02:38:24;;;;;;;;;;;16.70;82.40;;;;;;8371503;28;20369;-73
2023/05/05 02:42:32;;;;;;;;;;;16.70;75.60;;;;;;8400738;28;19943;-73
2023/05/05 02:46:36;;;;;;;;;;;16.60;74.80;;;;;;8389476;28;20547;-74
2023/05/05 02:50:37;;;;;;;;;;;16.60;73.80;;;;;;8396707;28;19939;-73
2023/05/05 02:54:39;;;;;;;;;;;16.60;73.70;;;;;;8377295;28;20026;-73
2023/05/05 02:58:45;;;;;;;;;;;16.50;73.90;;;;;;8370539;28;19932;-73
2023/05/05 03:03:04;;;;;;;;;;;16.30;79.00;;;;;;8391617;28;20010;-74
2023/05/05 03:07:09;;;;;;;;;;;16.20;80.50;;;;;;8379325;28;19955;-73
2023/05/05 03:11:22;;;;;;;;;;;16.00;75.80;;;;;;8393858;28;19924;-73
2023/05/05 03:15:27;;;;;;;;;;;15.80;83.80;;;;;;8367657;28;19928;-73
2023/05/05 03:19:29;;;;;;;;;;;15.50;94.30;;;;;;8369671;28;19933;-74
2023/05/05 03:23:31;;;;;;;;;;;15.30;95.00;;;;;;8395230;28;19928;-72
2023/05/05 03:27:33;;;;;;;;;;;15.00;96.20;;;;;;8383224;28;20019;-72
2023/05/05 03:31:35;;;;;;;;;;;14.90;97.10;;;;;;8390029;28;19932;-72
2023/05/05 03:35:36;;;;;;;;;;;14.70;99.90;;;;;;8364257;28;20447;-71
2023/05/05 03:39:38;;;;;;;;;;;14.60;98.60;;;;;;8385078;28;19976;-71
2023/05/05 03:43:40;;;;;;;;;;;14.60;91.20;;;;;;8386545;28;19947;-71
2023/05/05 03:47:41;;;;;;;;;;;14.60;97.30;;;;;;8381819;28;19924;-71
2023/05/05 03:51:43;;;;;;;;;;;14.60;99.90;;;;;;8389709;28;19932;-71
2023/05/05 03:55:45;;;;;;;;;;;14.50;97.30;;;;;;8385244;28;19935;-72
2023/05/05 03:59:46;;;;;;;;;;;14.40;99.50;;;;;;8405808;28;19934;-71
2023/05/05 04:03:48;;;;;;;;;;;14.30;95.40;;;;;;8399718;28;20387;-71
2023/05/05 04:07:50;;;;;;;;;;;14.30;91.20;;;;;;8365469;28;19924;-71
2023/05/05 04:11:51;;;;;;;;;;;14.30;96.00;;;;;;8375653;28;20532;-71
2023/05/05 04:15:53;;;;;;;;;;;14.30;97.50;;;;;;8350837;28;19962;-71
2023/05/05 04:19:55;;;;;;;;;;;14.30;99.30;;;;;;8381539;28;20288;-71
2023/05/05 04:23:57;;;;;;;;;;;14.30;93.30;;;;;;8412300;28;19964;-71
2023/05/05 04:27:59;;;;;;;;;;;14.30;94.60;;;;;;8396399;28;19971;-71
2023/05/05 04:32:00;;;;;;;;;;;14.40;90.80;;;;;;8407655;28;20002;-71
2023/05/05 04:36:02;;;;;;;;;;;14.40;93.40;;;;;;8390615;28;19983;-71
2023/05/05 04:40:04;;;;;;;;;;;14.50;89.70;;;;;;8419262;28;20387;-71
2023/05/05 04:44:06;;;;;;;;;;;14.60;87.30;;;;;;8401251;28;19929;-71
2023/05/05 04:48:08;;;;;;;;;;;14.60;86.20;;;;;;8406595;28;19971;-71
2023/05/05 04:52:11;;;;;;;;;;;14.70;86.00;;;;;;8403515;28;20417;-71
2023/05/05 04:56:13;;;;;;;;;;;14.80;91.10;;;;;;8399678;28;19925;-72
2023/05/05 05:00:14;;;;;;;;;;;14.80;90.50;;;;;;8416529;28;20015;-71
2023/05/05 05:04:17;;;;;;;;;;;14.90;86.70;;;;;;8397238;28;19924;-72
2023/05/05 05:08:19;;;;;;;;;;;15.00;85.60;;;;;;8406493;28;19944;-71
2023/05/05 05:12:21;;;;;;;;;;;15.10;85.50;;;;;;8395371;28;20363;-72
2023/05/05 05:16:23;;;;;;;;;;;15.20;85.70;;;;;;8409944;28;19969;-71
2023/05/05 05:20:25;;;;;;;;;;;15.30;85.90;;;;;;8417418;28;19928;-72
2023/05/05 05:24:27;;;;;;;;;;;15.40;87.40;;;;;;8384881;28;20280;-71
2023/05/05 05:28:28;;;;;;;;;;;15.50;85.90;;;;;;8383642;28;19974;-71
2023/05/05 05:32:30;;;;;;;;;;;15.60;87.00;;;;;;8383846;28;19924;-71
2023/05/05 05:36:32;;;;;;;;;;;15.60;93.30;;;;;;8406666;28;19928;-70
2023/05/05 05:40:33;;;;;;;;;;;15.60;97.90;;;;;;8393026;28;19932;-71
2023/05/05 05:44:35;;;;;;;;;;;15.50;98.00;;;;;;8367418;28;19932;-71
2023/05/05 05:48:37;;;;;;;;;;;15.60;94.40;;;;;;8365530;28;20336;-71
2023/05/05 05:52:38;;;;;;;;;;;15.60;94.60;;;;;;8345140;28;20496;-71
2023/05/05 05:56:40;;;;;;;;;;;15.80;94.20;;;;;;8357035;28;19964;-71
2023/05/05 06:00:42;;;;;;;;;;;15.90;90.90;;;;;;8372768;28;19940;-71
2023/05/05 06:04:43;;;;;;;;;;;16.00;98.40;;;;;;8345474;28;19925;-71
2023/05/05 06:08:45;;;;;;;;;;;15.90;99.60;;;;;;8356688;28;20028;-71
2023/05/05 06:12:47;;;;;;;;;;;15.90;99.90;;;;;;8345879;28;19932;-71
2023/05/05 06:16:49;;;;;;;;;;;15.90;99.90;;;;;;8338150;28;19928;-71
2023/05/05 06:20:51;;;;;;;;;;;16.00;99.90;;;;;;8340657;28;19931;-71
2023/05/05 06:24:52;;;;;;;;;;;16.10;99.90;;;;;;8350175;28;19924;-71
2023/05/05 06:28:57;;;;;;;;;;;16.10;99.90;;;;;;8366919;28;19929;-72
2023/05/05 06:32:58;;;;;;;;;;;16.10;99.90;;;;;;8357119;28;20336;-71
2023/05/05 06:37:00;;;;;;;;;;;16.10;99.90;;;;;;8357702;28;20365;-71
2023/05/05 06:41:02;;;;;;;;;;;16.20;99.90;;;;;;8357444;28;20319;-71
2023/05/05 06:45:03;;;;;;;;;;;16.20;99.90;;;;;;8354671;28;19924;-71
2023/05/05 06:49:05;;;;;;;;;;;16.30;99.90;;;;;;8350702;28;19929;-71
2023/05/05 06:53:07;;;;;;;;;;;16.40;99.90;;;;;;8344321;28;20027;-71
2023/05/05 06:57:08;;;;;;;;;;;16.60;99.90;;;;;;8355810;28;20660;-71
2023/05/05 07:01:10;;;;;;;;;;;16.70;99.90;;;;;;8340738;28;19931;-71
2023/05/05 07:05:11;;;;;;;;;;;16.80;99.90;;;;;;8360842;28;19924;-70
2023/05/05 07:09:13;;;;;;;;;;;16.90;99.90;;;;;;8368353;28;19964;-71
2023/05/05 07:13:17;;;;;;;;;;;17.00;99.90;;;;;;8365577;28;19933;-71
2023/05/05 07:17:19;;;;;;;;;;;17.10;99.90;;;;;;8356007;28;19959;-71
2023/05/05 07:21:20;;;;;;;;;;;17.10;99.90;;;;;;8363832;28;20074;-71
2023/05/05 07:25:24;;;;;;;;;;;17.20;99.90;;;;;;8371659;28;20390;-71
2023/05/05 07:29:25;;;;;;;;;;;17.30;99.90;;;;;;8367642;28;19942;-70
2023/05/05 07:33:27;;;;;;;;;;;17.30;99.90;;;;;;8352143;28;19972;-71
2023/05/05 07:37:29;;;;;;;;;;;17.40;99.90;;;;;;8373702;28;20325;-71
2023/05/05 07:41:30;;;;;;;;;;;17.60;99.90;;;;;;8372820;28;19964;-71
2023/05/05 07:45:32;;;;;;;;;;;17.70;99.90;;;;;;8373269;28;19931;-70
2023/05/05 07:49:33;;;;;;;;;;;17.80;99.90;;;;;;8365724;28;19976;-71
2023/05/05 07:53:35;;;;;;;;;;;17.90;99.90;;;;;;8351044;28;20020;-71
2023/05/05 07:57:37;;;;;;;;;;;18.00;99.90;;;;;;8374815;28;20449;-71
2023/05/05 08:01:39;;;;;;;;;;;18.10;99.90;;;;;;8358163;28;20344;-71
2023/05/05 08:05:40;;;;;;;;;;;18.20;99.90;;;;;;8351760;28;19924;-71
2023/05/05 08:09:42;;;;;;;;;;;18.30;99.90;;;;;;8374693;28;20408;-71
2023/05/05 08:13:44;;;;;;;;;;;18.40;99.90;;;;;;8354761;28;19932;-71
2023/05/05 08:17:47;;;;;;;;;;;18.60;99.90;;;;;;8341821;28;19928;-71
2023/05/05 08:21:49;;;;;;;;;;;18.80;99.90;;;;;;8356879;28;20257;-71
2023/05/05 08:25:51;;;;;;;;;;;18.90;99.90;;;;;;8359904;28;20323;-71
2023/05/05 08:29:52;;;;;;;;;;;19.00;99.90;;;;;;8364666;28;19972;-71
2023/05/05 08:33:54;;;;;;;;;;;19.00;99.90;;;;;;8359877;28;19929;-71
2023/05/05 08:37:56;;;;;;;;;;;19.00;99.90;;;;;;8363336;28;19951;-71
2023/05/05 08:41:59;;;;;;;;;;;19.10;99.90;;;;;;8360131;28;20019;-71
2023/05/05 08:46:01;;;;;;;;;;;19.30;99.90;;;;;;8356492;28;20388;-71
2023/05/05 08:50:04;;;;;;;;;;;19.30;99.90;;;;;;8363550;28;20437;-71
2023/05/05 08:54:09;;;;;;;;;;;19.30;99.90;;;;;;8360484;28;19934;-71
2023/05/05 08:58:11;;;;;;;;;;;19.20;99.90;;;;;;8354234;28;19960;-71
2023/05/05 09:02:13;;;;;;;;;;;19.30;99.90;;;;;;8373727;28;19929;-71
2023/05/05 09:06:15;;;;;;;;;;;19.30;99.90;;;;;;8358356;28;19964;-71
2023/05/05 09:10:17;;;;;;;;;;;19.50;99.90;;;;;;8359133;28;20059;-71
2023/05/05 09:14:18;;;;;;;;;;;19.80;99.90;;;;;;8361170;28;19932;-71
2023/05/05 09:18:20;;;;;;;;;;;19.80;99.90;;;;;;8363377;28;20187;-71
2023/05/05 09:22:31;;;;;;;;;;;19.80;99.90;;;;;;8387938;28;20031;-71
2023/05/05 09:26:33;;;;;;;;;;;19.70;99.90;;;;;;8357036;28;19935;-71
2023/05/05 09:30:35;;;;;;;;;;;19.60;99.90;;;;;;8361382;28;20044;-71
2023/05/05 09:34:37;;;;;;;;;;;19.50;99.90;;;;;;8358717;28;20352;-73
2023/05/05 09:38:38;;;;;;;;;;;19.50;99.90;;;;;;8347390;28;19947;-71
2023/05/05 09:42:40;;;;;;;;;;;19.40;99.90;;;;;;8363847;28;20411;-71
2023/05/05 09:46:49;;;;;;;;;;;19.30;99.90;;;;;;8359754;28;20015;-71
2023/05/05 09:50:51;;;;;;;;;;;19.30;99.90;;;;;;8358862;28;19928;-71
2023/05/05 09:54:55;;;;;;;;;;;19.20;99.90;;;;;;8358003;28;19929;-71
2023/05/05 09:59:06;;;;;;;;;;;19.00;99.90;;;;;;8362357;28;19932;-71
2023/05/05 10:03:08;;;;;;;;;;;18.80;99.90;;;;;;8343193;28;20660;-71
2023/05/05 10:07:21;;;;;;;;;;;18.60;99.90;;;;;;8361338;28;20380;-71
2023/05/05 10:11:22;;;;;;;;;;;18.20;99.90;;;;;;8361113;28;20384;-71
2023/05/05 10:15:24;;;;;;;;;;;17.90;99.90;;;;;;8363785;28;19972;-71
2023/05/05 10:19:27;;;;;;;;;;;17.60;99.90;;;;;;8370906;28;20427;-71
2023/05/05 10:23:37;;;;;;;;;;;17.50;99.90;;;;;;8356702;28;20129;-71
2023/05/05 10:27:45;;;;;;;;;;;17.40;99.90;;;;;;8362660;28;19931;-71
2023/05/05 10:31:49;;;;;;;;;;;17.40;99.90;;;;;;8358025;28;20339;-71
2023/05/05 10:35:52;;;;;;;;;;;17.40;99.90;;;;;;8356813;28;19932;-71
2023/05/05 10:39:54;;;;;;;;;;;17.30;99.90;;;;;;8360435;28;19972;-71
2023/05/05 10:43:57;;;;;;;;;;;17.20;99.90;;;;;;8358055;28;19972;-71
2023/05/05 10:48:02;;;;;;;;;;;17.10;99.90;;;;;;8353846;28;19991;-71
2023/05/05 10:52:08;;;;;;;;;;;17.10;99.90;;;;;;8359192;28;19925;-71
2023/05/05 10:56:20;;;;;;;;;;;17.00;99.90;;;;;;8353094;28;20376;-72
2023/05/05 11:00:37;;;;;;;;;;;16.90;99.90;;;;;;8363787;28;19924;-71
2023/05/05 11:04:39;;;;;;;;;;;16.90;99.90;;;;;;8358279;28;20423;-72
2023/05/05 11:08:43;;;;;;;;;;;16.90;99.90;;;;;;8351949;28;19931;-71
2023/05/05 11:12:56;;;;;;;;;;;16.90;99.90;;;;;;8356349;28;19959;-71
2023/05/05 11:16:58;;;;;;;;;;;16.90;99.90;;;;;;8351911;28;20031;-71
2023/05/05 11:21:00;;;;;;;;;;;16.90;99.90;;;;;;8370781;28;20345;-71
2023/05/05 11:25:21;;;;;;;;;;;16.90;99.90;;;;;;8357712;28;19933;-71
2023/05/05 11:29:23;;;;;;;;;;;16.90;99.90;;;;;;8356521;28;20036;-71
2023/05/05 11:33:29;;;;;;;;;;;16.90;99.90;;;;;;8347072;28;20404;-71
2023/05/05 11:37:31;;;;;;;;;;;16.90;99.90;;;;;;8359011;28;19991;-71
2023/05/05 11:41:38;;;;;;;;;;;16.90;99.90;;;;;;8359554;28;19929;-71
2023/05/05 11:45:39;;;;;;;;;;;16.90;99.90;;;;;;8331809;28;20675;-71
2023/05/05 11:49:41;;;;;;;;;;;16.90;99.90;;;;;;8354700;28;19932;-71
2023/05/05 11:53:43;;;;;;;;;;;16.90;99.90;;;;;;8363848;28;19929;-71
2023/05/05 11:57:45;;;;;;;;;;;16.80;99.90;;;;;;8352608;28;19967;-71
2023/05/05 12:01:47;;;;;;;;;;;16.80;99.90;;;;;;8372615;28;19929;-71
2023/05/05 12:05:52;;;;;;;;;;;16.80;99.90;;;;;;8359191;28;19925;-71
2023/05/05 12:09:54;;;;;;;;;;;16.70;99.90;;;;;;8359462;28;19928;-71
2023/05/05 12:14:08;;;;;;;;;;;16.70;99.90;;;;;;8363716;28;19932;-71
2023/05/05 12:18:19;;;;;;;;;;;16.60;99.90;;;;;;8366021;28;19951;-71
2023/05/05 12:22:24;;;;;;;;;;;16.40;99.90;;;;;;8376231;28;20307;-71
2023/05/05 12:26:27;;;;;;;;;;;16.30;99.90;;;;;;8367751;28;19928;-71
2023/05/05 12:30:29;;;;;;;;;;;16.10;99.90;;;;;;8341718;28;20166;-71
2023/05/05 12:34:31;;;;;;;;;;;15.90;99.90;;;;;;8343310;28;21904;-71
2023/05/05 12:38:36;;;;;;;;;;;15.80;99.90;;;;;;8360374;28;19928;-71
2023/05/05 12:42:38;;;;;;;;;;;15.70;99.90;;;;;;8375428;28;19924;-71
2023/05/05 12:46:46;;;;;;;;;;;15.70;99.90;;;;;;8366930;28;20020;-71
2023/05/05 12:50:48;;;;;;;;;;;15.60;99.90;;;;;;8372772;28;19935;-71
2023/05/05 12:54:57;;;;;;;;;;;15.70;99.90;;;;;;8382469;28;19932;-71
2023/05/05 12:58:59;;;;;;;;;;;15.90;99.90;;;;;;8363500;28;19925;-71
2023/05/05 13:03:02;;;;;;;;;;;16.00;99.90;;;;;;8364326;28;19982;-71
2023/05/05 13:07:13;;;;;;;;;;;16.10;99.90;;;;;;8358863;28;19925;-71
2023/05/05 13:11:15;;;;;;;;;;;16.30;99.90;;;;;;8360266;28;20441;-71
2023/05/05 13:15:17;;;;;;;;;;;16.40;99.90;;;;;;8342722;28;19951;-71
2023/05/05 13:19:18;;;;;;;;;;;16.50;99.90;;;;;;8358021;28;20292;-71
2023/05/05 13:23:20;;;;;;;;;;;16.40;99.90;;;;;;8362301;28;19984;-71
2023/05/05 13:27:22;;;;;;;;;;;16.40;99.90;;;;;;8373559;28;19931;-71
2023/05/05 13:31:24;;;;;;;;;;;16.30;99.90;;;;;;8369544;28;20039;-71
2023/05/05 13:35:26;;;;;;;;;;;16.10;99.90;;;;;;8358376;28;20471;-71
2023/05/05 13:39:27;;;;;;;;;;;15.80;99.90;;;;;;8362334;28;20340;-71
2023/05/05 13:43:29;;;;;;;;;;;15.60;99.90;;;;;;8350069;28;20458;-71
2023/05/05 13:47:31;;;;;;;;;;;15.60;99.90;;;;;;8358953;28;19936;-71
2023/05/05 13:51:33;;;;;;;;;;;15.60;99.90;;;;;;8374373;28;19971;-71
2023/05/05 13:55:35;;;;;;;;;;;15.70;99.90;;;;;;8359096;28;19935;-71
2023/05/05 13:59:37;;;;;;;;;;;15.80;99.90;;;;;;8373823;28;20470;-71
2023/05/05 14:03:39;;;;;;;;;;;16.00;99.90;;;;;;8358854;28;19971;-71
2023/05/05 14:07:41;;;;;;;;;;;16.10;99.90;;;;;;8373455;28;19935;-70
2023/05/05 14:11:42;;;;;;;;;;;16.20;99.90;;;;;;8358392;28;19987;-71
2023/05/05 14:15:44;;;;;;;;;;;16.30;99.90;;;;;;8359935;28;19928;-71
2023/05/05 14:19:46;;;;;;;;;;;16.40;99.90;;;;;;8374912;28;19976;-71
2023/05/05 14:23:47;;;;;;;;;;;16.50;99.90;;;;;;8360254;28;20389;-71
2023/05/05 14:27:49;;;;;;;;;;;16.60;99.90;;;;;;8357506;28;19935;-71
2023/05/05 14:31:51;;;;;;;;;;;16.60;99.90;;;;;;8357789;28;19924;-71
2023/05/05 14:35:54;;;;;;;;;;;16.70;99.90;;;;;;8373343;28;19925;-71
2023/05/05 14:39:56;;;;;;;;;;;17.00;99.90;;;;;;8363718;28;19943;-71
2023/05/05 14:43:58;;;;;;;;;;;17.30;99.90;;;;;;8358821;28;19935;-71
2023/05/05 14:48:00;;;;;;;;;;;17.60;99.90;;;;;;8359861;28;19932;-71
2023/05/05 14:52:01;;;;;;;;;;;17.80;99.90;;;;;;8359909;28;19925;-71
2023/05/05 14:56:03;;;;;;;;;;;18.00;99.90;;;;;;8360658;28;20347;-71
2023/05/05 15:00:05;;;;;;;;;;;18.20;99.90;;;;;;8360810;28;19925;-71
2023/05/05 15:04:07;;;;;;;;;;;18.20;99.90;;;;;;8360328;28;19933;-71
2023/05/05 15:08:09;;;;;;;;;;;18.40;99.90;;;;;;8360445;28;19965;-71
2023/05/05 15:12:10;;;;;;;;;;;18.70;99.90;;;;;;8373945;28;20020;-71
2023/05/05 15:16:12;;;;;;;;;;;18.80;99.90;;;;;;8371412;28;19953;-71
2023/05/05 15:20:14;;;;;;;;;;;18.90;99.90;;;;;;8381363;28;19935;-71
2023/05/05 15:24:15;;;;;;;;;;;18.90;99.90;;;;;;8377466;28;20410;-71
2023/05/05 15:28:17;;;;;;;;;;;19.00;99.90;;;;;;8359207;28;20372;-71
2023/05/05 15:32:19;;;;;;;;;;;18.90;99.90;;;;;;8361881;28;20388;-71
2023/05/05 15:36:21;;;;;;;;;;;18.80;99.90;;;;;;8369813;28;19924;-71
2023/05/05 15:40:23;;;;;;;;;;;18.80;99.90;;;;;;8358138;28;20256;-71
2023/05/05 15:44:24;;;;;;;;;;;18.80;99.90;;;;;;8368580;28;19928;-71
2023/05/05 15:48:26;;;;;;;;;;;18.80;99.90;;;;;;8365075;28;19929;-71
2023/05/05 15:52:28;;;;;;;;;;;18.90;99.90;;;;;;8350351;28;19934;-71
2023/05/05 15:56:29;;;;;;;;;;;19.20;99.90;;;;;;8353080;28;19974;-71
2023/05/05 16:00:31;;;;;;;;;;;20.00;99.90;;;;;;8362124;28;19936;-71
2023/05/05 16:04:32;;;;;;;;;;;21.20;99.90;;;;;;8360319;28;19976;-71
2023/05/05 16:08:35;;;;;;;;;;;22.30;99.90;;;;;;8378036;28;19928;-74
2023/05/05 16:12:37;;;;;;;;;;;22.90;99.90;;;;;;8370835;28;20387;-75
2023/05/05 16:16:38;;;;;;;;;;;22.70;99.90;;;;;;8352818;28;20330;-75
2023/05/05 16:20:40;;;;;;;;;;;22.30;99.90;;;;;;8359596;28;19964;-72
2023/05/05 16:24:42;;;;;;;;;;;22.00;99.90;;;;;;8360228;28;19972;-72
2023/05/05 16:28:44;;;;;;;;;;;22.20;99.90;;;;;;8376160;28;19925;-72
2023/05/05 16:32:49;;;;;;;;;;;23.00;99.90;;;;;;8377025;28;19932;-72
2023/05/05 16:36:52;;;;;;;;;;;24.20;99.90;;;;;;8363824;28;19924;-72
2023/05/05 16:40:54;;;;;;;;;;;25.20;99.90;;;;;;8364062;28;20742;-72
2023/05/05 16:44:55;;;;;;;;;;;25.90;99.90;;;;;;8375999;28;19932;-72
2023/05/05 16:48:57;;;;;;;;;;;26.10;99.90;;;;;;8375516;28;19940;-72
2023/05/05 16:52:58;;;;;;;;;;;26.40;99.90;;;;;;8372953;28;20102;-73
2023/05/05 16:57:02;;;;;;;;;;;26.60;99.90;;;;;;8370578;28;20388;-72
2023/05/05 17:01:04;;;;;;;;;;;26.60;99.90;;;;;;8374992;28;19928;-72
2023/05/05 17:05:06;;;;;;;;;;;26.40;99.90;;;;;;8373249;28;19932;-72
2023/05/05 17:09:07;;;;;;;;;;;26.30;99.90;;;;;;8372104;28;20264;-72
2023/05/05 17:13:09;;;;;;;;;;;26.10;99.90;;;;;;8367981;28;19928;-71
2023/05/05 17:17:11;;;;;;;;;;;26.00;99.90;;;;;;8365598;28;19929;-72
2023/05/05 17:21:13;;;;;;;;;;;26.00;99.90;;;;;;8365274;28;20417;-72
2023/05/05 17:25:14;;;;;;;;;;;26.20;99.90;;;;;;8359728;28;20380;-72
2023/05/05 17:29:20;;;;;;;;;;;26.30;99.90;;;;;;8360803;28;19933;-72
2023/05/05 17:33:22;;;;;;;;;;;26.20;99.90;;;;;;8365106;28;20015;-72
2023/05/05 17:37:23;;;;;;;;;;;26.10;99.90;;;;;;8363496;28;19931;-72
2023/05/05 17:41:25;;;;;;;;;;;25.90;99.90;;;;;;8335033;28;19971;-72
2023/05/05 17:45:27;;;;;;;;;;;25.70;99.90;;;;;;8363464;28;20035;-72
2023/05/05 17:49:28;;;;;;;;;;;25.40;99.90;;;;;;8375124;28;20023;-72
2023/05/05 17:53:30;;;;;;;;;;;25.00;99.90;;;;;;8367614;28;20019;-72
2023/05/05 17:57:32;;;;;;;;;;;24.40;99.90;;;;;;8343679;28;19929;-72
2023/05/05 18:01:34;;;;;;;;;;;23.80;99.90;;;;;;8358759;28;19939;-72
2023/05/05 18:05:35;;;;;;;;;;;23.20;99.90;;;;;;8364487;28;19925;-72
2023/05/05 18:15:03;;;;;;;;;;;22.30;99.90;;;;;;8357724;28;19923;-72
2023/05/05 18:19:04;;;;;;;;;;;22.00;99.90;;;;;;8356513;28;19929;-71
2023/05/05 18:23:06;;;;;;;;;;;21.90;99.90;;;;;;8363338;28;19967;-72
2023/05/05 18:27:08;;;;;;;;;;;21.90;99.90;;;;;;8371454;28;19929;-72
2023/05/05 18:31:09;;;;;;;;;;;21.80;99.90;;;;;;8361214;28;19943;-71
2023/05/05 18:35:11;;;;;;;;;;;21.50;99.90;;;;;;8361485;28;19929;-72
2023/05/05 18:39:13;;;;;;;;;;;21.20;99.90;;;;;;8361915;28;19935;-72
2023/05/05 18:43:15;;;;;;;;;;;20.80;99.90;;;;;;8358841;28;19940;-72
2023/05/05 18:47:16;;;;;;;;;;;20.50;99.90;;;;;;8361872;28;19932;-72
2023/05/05 18:51:18;;;;;;;;;;;20.20;99.90;;;;;;8360988;28;19925;-72
2023/05/05 18:55:20;;;;;;;;;;;19.90;99.90;;;;;;8363507;28;20013;-71
2023/05/05 18:59:23;;;;;;;;;;;19.70;99.90;;;;;;8365452;28;20422;-71
2023/05/05 19:03:24;;;;;;;;;;;19.40;99.90;;;;;;8360201;28;19999;-72
2023/05/05 19:07:27;;;;;;;;;;;19.20;99.90;;;;;;8358892;28;19928;-71
2023/05/05 19:11:40;;;;;;;;;;;19.00;99.90;;;;;;8364023;28;19929;-72
2023/05/05 19:15:42;;;;;;;;;;;18.80;99.90;;;;;;8371212;28;19929;-71
2023/05/05 19:19:43;;;;;;;;;;;18.70;99.90;;;;;;8370184;28;19928;-71
2023/05/05 19:23:45;;;;;;;;;;;18.50;99.90;;;;;;8362947;28;19979;-71
2023/05/05 19:27:47;;;;;;;;;;;18.40;99.90;;;;;;8351941;28;19924;-71
2023/05/05 19:31:48;;;;;;;;;;;18.30;99.90;;;;;;8362008;28;21402;-72
2023/05/05 19:35:50;;;;;;;;;;;18.20;99.90;;;;;;8370100;28;19935;-72
2023/05/05 19:39:52;;;;;;;;;;;18.10;99.90;;;;;;8365380;28;20718;-71
2023/05/05 19:43:53;;;;;;;;;;;18.00;99.90;;;;;;8370364;28;19925;-71
2023/05/05 19:47:55;;;;;;;;;;;17.90;99.90;;;;;;8347602;28;20055;-72
2023/05/05 19:51:57;;;;;;;;;;;17.70;99.90;;;;;;8365063;28;19950;-72
2023/05/05 19:55:59;;;;;;;;;;;17.60;99.90;;;;;;8365056;28;20321;-72
2023/05/05 20:00:01;;;;;;;;;;;17.50;99.90;;;;;;8357567;28;20614;-71
2023/05/05 20:04:02;;;;;;;;;;;17.40;99.90;;;;;;8361472;28;19933;-72
2023/05/05 20:08:05;;;;;;;;;;;17.30;99.90;;;;;;8371415;28;20023;-71
2023/05/05 20:12:06;;;;;;;;;;;17.20;99.90;;;;;;8343613;28;19936;-71
2023/05/05 20:16:08;;;;;;;;;;;17.10;99.90;;;;;;8367316;28;19924;-71
2023/05/05 20:20:10;;;;;;;;;;;17.00;99.90;;;;;;8360659;28;19929;-71
2023/05/05 20:24:12;;;;;;;;;;;17.00;99.90;;;;;;8362138;28;20036;-71
2023/05/05 20:28:13;;;;;;;;;;;16.80;99.90;;;;;;8364726;28;19925;-71
2023/05/05 20:32:16;;;;;;;;;;;16.70;99.90;;;;;;8362827;28;19924;-71
2023/05/05 20:36:17;;;;;;;;;;;16.60;99.90;;;;;;8369873;28;19925;-71
2023/05/05 20:40:19;;;;;;;;;;;16.60;99.90;;;;;;8362811;28;19937;-71
2023/05/05 20:44:21;;;;;;;;;;;16.40;99.90;;;;;;8365732;28;19955;-71
2023/05/05 20:48:22;;;;;;;;;;;16.40;99.90;;;;;;8346599;28;19928;-71
2023/05/05 20:52:24;;;;;;;;;;;16.30;99.90;;;;;;8362153;28;20022;-71
2023/05/05 20:56:26;;;;;;;;;;;16.20;99.90;;;;;;8376538;28;20487;-71
2023/05/05 21:00:27;;;;;;;;;;;16.10;99.90;;;;;;8367502;28;19931;-71
2023/05/05 21:04:29;;;;;;;;;;;16.10;99.90;;;;;;8390447;28;20323;-71
2023/05/05 21:08:31;;;;;;;;;;;16.00;99.90;;;;;;8389770;28;19925;-71
2023/05/05 21:12:33;;;;;;;;;;;15.90;99.90;;;;;;8378160;28;20019;-71
2023/05/05 21:16:34;;;;;;;;;;;15.90;99.90;;;;;;8379501;28;19924;-71
2023/05/05 21:20:36;;;;;;;;;;;15.80;99.90;;;;;;8393939;28;20241;-71
2023/05/05 21:24:38;;;;;;;;;;;15.70;99.90;;;;;;8395943;28;20350;-71
2023/05/05 21:28:40;;;;;;;;;;;15.60;99.90;;;;;;8396057;28;20371;-71
2023/05/05 21:32:42;;;;;;;;;;;15.60;99.90;;;;;;8399092;28;20296;-71
2023/05/05 21:36:43;;;;;;;;;;;15.50;99.90;;;;;;8408622;28;19924;-71
2023/05/05 21:40:45;;;;;;;;;;;15.50;99.90;;;;;;8376995;28;20402;-71
2023/05/05 21:44:47;;;;;;;;;;;15.50;99.90;;;;;;8386626;28;20011;-71
2023/05/05 21:48:48;;;;;;;;;;;15.40;99.90;;;;;;8353899;28;20351;-71
2023/05/05 21:52:50;;;;;;;;;;;15.30;99.90;;;;;;8376362;28;19928;-71
2023/05/05 21:56:52;;;;;;;;;;;15.30;99.90;;;;;;8386421;28;19928;-71
2023/05/05 22:01:01;;;;;;;;;;;15.20;99.90;;;;;;8383160;28;19948;-72
2023/05/05 22:05:02;;;;;;;;;;;15.20;99.90;;;;;;8372107;28;19932;-72
2023/05/05 22:09:04;;;;;;;;;;;15.10;99.90;;;;;;8372764;28;20406;-72
2023/05/05 22:13:06;;;;;;;;;;;15.10;99.90;;;;;;8394125;28;20374;-72
2023/05/05 22:17:07;;;;;;;;;;;15.10;99.90;;;;;;8384435;28;20398;-72
2023/05/05 22:21:09;;;;;;;;;;;15.00;99.90;;;;;;8372098;28;19925;-72
2023/05/05 22:25:11;;;;;;;;;;;15.00;99.90;;;;;;8367014;28;19951;-72
2023/05/05 22:29:12;;;;;;;;;;;15.00;99.90;;;;;;8370358;28;20332;-72
2023/05/05 22:33:14;;;;;;;;;;;14.90;99.90;;;;;;8369175;28;19932;-72
2023/05/05 22:37:16;;;;;;;;;;;14.90;99.90;;;;;;8363374;28;19925;-72
2023/05/05 22:41:18;;;;;;;;;;;14.90;99.90;;;;;;8364550;28;20359;-72
2023/05/05 22:45:20;;;;;;;;;;;14.90;99.90;;;;;;8374928;28;19924;-72
2023/05/05 22:49:22;;;;;;;;;;;14.80;99.90;;;;;;8369863;28;19965;-72
2023/05/05 22:53:23;;;;;;;;;;;14.80;99.90;;;;;;8377047;28;19925;-72
2023/05/05 22:57:25;;;;;;;;;;;14.70;99.90;;;;;;8380445;28;19932;-72
2023/05/05 23:01:27;;;;;;;;;;;14.70;99.90;;;;;;8405417;28;20011;-72
2023/05/05 23:05:29;;;;;;;;;;;14.70;99.90;;;;;;8414888;28;19954;-72
2023/05/05 23:09:30;;;;;;;;;;;14.60;99.90;;;;;;8392986;28;19925;-72
2023/05/05 23:13:32;;;;;;;;;;;14.50;99.90;;;;;;8380996;28;19935;-72
2023/05/05 23:17:34;;;;;;;;;;;14.50;99.90;;;;;;8384618;28;19932;-72
2023/05/05 23:21:35;;;;;;;;;;;14.40;99.90;;;;;;8381254;28;20280;-72
2023/05/05 23:25:50;;;;;;;;;;;14.40;99.90;;;;;;8383290;28;20371;-72
2023/05/05 23:29:52;;;;;;;;;;;14.30;99.90;;;;;;8379808;28;20019;-72
2023/05/05 23:33:53;;;;;;;;;;;14.30;99.90;;;;;;8381968;28;20027;-72
2023/05/05 23:37:55;;;;;;;;;;;14.30;99.90;;;;;;8381249;28;19924;-72
2023/05/05 23:41:57;;;;;;;;;;;14.20;99.90;;;;;;8373001;28;20302;-72
2023/05/05 23:45:58;;;;;;;;;;;14.30;99.90;;;;;;8357470;28;20688;-72